createdAt,value
2017-08-27T00:01:18.058Z,92.70
2017-08-27T00:03:45.603Z,92.80
2017-08-27T00:06:13.118Z,92.80
2017-08-27T00:08:40.670Z,92.80
2017-08-27T00:11:08.176Z,92.90
2017-08-27T00:13:35.679Z,93.10
2017-08-27T00:16:03.273Z,93.20
2017-08-27T00:18:30.771Z,93.20
2017-08-27T00:20:58.312Z,93.30
2017-08-27T00:23:25.820Z,93.40
2017-08-27T00:25:53.319Z,93.50
2017-08-27T00:28:20.859Z,93.60
2017-08-27T00:30:48.359Z,93.70
2017-08-27T00:33:15.982Z,93.90
2017-08-27T00:35:43.488Z,94.00
2017-08-27T00:38:11.110Z,94.00
2017-08-27T00:40:39.390Z,94.40
2017-08-27T00:43:06.910Z,94.40
2017-08-27T00:45:34.457Z,94.80
2017-08-27T00:48:01.978Z,94.70
2017-08-27T00:50:29.509Z,94.90
2017-08-27T00:52:57.039Z,95.00
2017-08-27T00:55:24.540Z,95.30
2017-08-27T00:57:52.058Z,95.20
2017-08-27T01:00:19.607Z,95.30
2017-08-27T01:02:47.127Z,95.40
2017-08-27T01:05:14.654Z,95.40
2017-08-27T01:07:42.184Z,95.60
2017-08-27T01:10:10.456Z,95.80
2017-08-27T01:12:37.972Z,95.80
2017-08-27T01:15:05.530Z,95.90
2017-08-27T01:17:33.050Z,95.80
2017-08-27T01:20:00.552Z,95.80
2017-08-27T01:22:28.085Z,96.00
2017-08-27T01:24:55.588Z,96.00
2017-08-27T01:27:23.102Z,96.10
2017-08-27T01:29:50.632Z,96.10
2017-08-27T01:32:18.147Z,96.10
2017-08-27T01:34:45.675Z,96.10
2017-08-27T01:37:13.218Z,96.10
2017-08-27T01:39:40.725Z,96.30
2017-08-27T01:42:08.254Z,96.40
2017-08-27T01:44:35.807Z,96.50
2017-08-27T01:47:03.307Z,96.70
2017-08-27T01:49:30.808Z,96.70
2017-08-27T01:51:58.354Z,96.80
2017-08-27T01:54:26.624Z,96.80
2017-08-27T01:56:54.182Z,96.70
2017-08-27T01:59:21.696Z,96.70
2017-08-27T02:01:49.228Z,96.70
2017-08-27T02:04:16.746Z,96.90
2017-08-27T02:06:44.252Z,97.00
2017-08-27T02:09:11.790Z,96.70
2017-08-27T02:11:39.373Z,97.00
2017-08-27T02:14:06.927Z,97.00
2017-08-27T02:16:34.448Z,97.00
2017-08-27T02:19:01.967Z,97.00
2017-08-27T02:21:29.624Z,97.00
2017-08-27T02:23:57.129Z,97.10
2017-08-27T02:26:24.728Z,97.40
2017-08-27T02:28:52.287Z,97.60
2017-08-27T02:31:19.815Z,97.70
2017-08-27T02:33:48.117Z,97.80
2017-08-27T02:36:15.681Z,97.80
2017-08-27T02:38:43.226Z,97.90
2017-08-27T02:41:10.801Z,97.90
2017-08-27T02:43:38.307Z,98.10
2017-08-27T02:46:05.835Z,98.10
2017-08-27T02:48:33.336Z,98.10
2017-08-27T02:51:00.840Z,98.00
2017-08-27T02:53:28.369Z,97.90
2017-08-27T02:55:55.892Z,97.90
2017-08-27T02:58:23.434Z,97.90
2017-08-27T03:00:50.936Z,97.90
2017-08-27T03:03:19.204Z,98.00
2017-08-27T03:05:46.750Z,98.00
2017-08-27T03:08:14.266Z,98.10
2017-08-27T03:10:41.778Z,98.20
2017-08-27T03:13:09.316Z,98.40
2017-08-27T03:15:36.819Z,98.40
2017-08-27T03:18:04.337Z,98.40
2017-08-27T03:20:31.878Z,98.40
2017-08-27T03:22:59.399Z,98.20
2017-08-27T03:25:26.933Z,98.40
2017-08-27T03:27:54.436Z,98.10
2017-08-27T03:30:22.176Z,98.00
2017-08-27T03:32:49.698Z,98.10
2017-08-27T03:35:17.237Z,98.20
2017-08-27T03:37:44.735Z,98.30
2017-08-27T03:40:12.240Z,98.30
2017-08-27T03:42:39.781Z,98.40
2017-08-27T03:45:07.298Z,98.40
2017-08-27T03:47:34.829Z,98.60
2017-08-27T03:50:02.340Z,98.70
2017-08-27T03:52:29.844Z,98.80
2017-08-27T03:54:57.393Z,98.80
2017-08-27T03:57:24.933Z,98.90
2017-08-27T03:59:52.447Z,99.00
2017-08-27T04:02:19.991Z,99.10
2017-08-27T04:04:47.506Z,99.50
2017-08-27T04:07:15.057Z,99.40
2017-08-27T04:09:43.547Z,99.40
2017-08-27T04:12:11.066Z,99.40
2017-08-27T04:14:38.593Z,99.40
2017-08-27T04:17:06.105Z,99.40
2017-08-27T04:22:06.250Z,99.40
2017-08-27T04:24:33.819Z,99.50
2017-08-27T04:27:01.343Z,99.50
2017-08-27T04:29:29.635Z,99.60
2017-08-27T04:31:57.155Z,99.60
2017-08-27T04:34:24.674Z,99.60
2017-08-27T04:36:52.195Z,99.70
2017-08-27T04:39:19.705Z,99.60
2017-08-27T04:41:47.234Z,99.50
2017-08-27T04:44:14.735Z,99.50
2017-08-27T04:46:42.234Z,99.50
2017-08-27T04:49:09.756Z,99.50
2017-08-27T04:51:37.273Z,99.40
2017-08-27T04:54:04.799Z,99.30
2017-08-27T04:56:33.093Z,99.00
2017-08-27T04:59:00.629Z,98.90
2017-08-27T05:01:28.132Z,99.00
2017-08-27T05:03:55.632Z,98.60
2017-08-27T05:06:23.177Z,98.50
2017-08-27T05:08:50.693Z,98.40
2017-08-27T05:11:18.203Z,98.40
2017-08-27T05:13:45.747Z,98.20
2017-08-27T05:16:13.247Z,98.10
2017-08-27T05:18:41.532Z,98.00
2017-08-27T05:21:09.051Z,97.90
2017-08-27T05:23:36.685Z,97.80
2017-08-27T05:26:04.195Z,97.70
2017-08-27T05:28:31.762Z,97.60
2017-08-27T05:30:59.278Z,97.50
2017-08-27T05:33:26.775Z,97.50
2017-08-27T05:35:55.078Z,97.20
2017-08-27T05:38:22.620Z,97.20
2017-08-27T05:40:50.152Z,97.00
2017-08-27T05:43:17.655Z,96.80
2017-08-27T05:45:45.176Z,96.60
2017-08-27T05:48:12.781Z,96.20
2017-08-27T05:50:40.284Z,95.80
2017-08-27T05:53:07.804Z,95.30
2017-08-27T05:55:35.335Z,95.00
2017-08-27T05:58:03.617Z,94.50
2017-08-27T06:00:31.130Z,94.50
2017-08-27T06:02:58.674Z,94.50
2017-08-27T06:05:26.198Z,93.90
2017-08-27T06:07:53.719Z,93.90
2017-08-27T06:10:22.032Z,93.30
2017-08-27T06:12:49.582Z,93.30
2017-08-27T06:15:17.357Z,93.10
2017-08-27T06:17:44.879Z,92.80
2017-08-27T06:20:13.163Z,92.50
2017-08-27T06:22:40.682Z,92.30
2017-08-27T06:25:08.225Z,92.40
2017-08-27T06:27:35.742Z,92.00
2017-08-27T06:30:04.045Z,90.60
2017-08-27T06:32:31.758Z,90.60
2017-08-27T06:34:59.277Z,90.90
2017-08-27T06:37:26.826Z,90.30
2017-08-27T06:39:54.333Z,90.40
2017-08-27T06:42:21.842Z,89.20
2017-08-27T06:44:50.329Z,87.90
2017-08-27T06:47:17.831Z,87.90
2017-08-27T06:49:45.370Z,86.60
2017-08-27T06:52:12.873Z,84.70
2017-08-27T06:54:40.423Z,84.10
2017-08-27T06:57:07.938Z,82.50
2017-08-27T06:59:35.440Z,80.80
2017-08-27T07:02:03.741Z,79.10
2017-08-27T07:04:31.243Z,79.10
2017-08-27T07:06:58.763Z,78.60
2017-08-27T07:09:26.277Z,78.20
2017-08-27T07:11:53.834Z,79.50
2017-08-27T07:14:21.354Z,79.50
2017-08-27T07:16:48.856Z,79.00
2017-08-27T07:19:16.462Z,78.70
2017-08-27T07:21:43.960Z,77.80
2017-08-27T07:24:11.576Z,78.00
2017-08-27T07:26:39.124Z,77.80
2017-08-27T07:29:06.694Z,76.80
2017-08-27T07:31:34.243Z,76.90
2017-08-27T07:34:02.527Z,72.10
2017-08-27T07:36:30.089Z,72.10
2017-08-27T07:38:57.618Z,71.90
2017-08-27T07:41:25.208Z,70.00
2017-08-27T07:43:52.752Z,68.90
2017-08-27T07:46:20.269Z,64.60
2017-08-27T07:48:47.772Z,63.50
2017-08-27T07:51:15.325Z,61.30
2017-08-27T07:53:42.843Z,58.90
2017-08-27T07:56:10.372Z,56.00
2017-08-27T07:58:37.876Z,55.30
2017-08-27T08:01:05.430Z,53.90
2017-08-27T08:03:32.931Z,50.50
2017-08-27T08:06:00.477Z,50.60
2017-08-27T08:08:28.001Z,50.90
2017-08-27T08:10:55.503Z,50.30
2017-08-27T08:13:23.046Z,50.20
2017-08-27T08:15:50.541Z,49.60
2017-08-27T08:18:18.090Z,49.00
2017-08-27T08:20:45.592Z,48.30
2017-08-27T08:23:13.109Z,47.60
2017-08-27T08:25:40.638Z,46.50
2017-08-27T08:28:08.144Z,44.30
2017-08-27T08:30:35.690Z,42.60
2017-08-27T08:33:03.223Z,42.30
2017-08-27T08:35:30.727Z,41.60
2017-08-27T08:37:58.270Z,40.20
2017-08-27T08:40:25.771Z,40.00
2017-08-27T08:42:53.316Z,39.60
2017-08-27T08:45:20.820Z,39.30
2017-08-27T08:47:48.352Z,39.50
2017-08-27T08:50:16.646Z,38.80
2017-08-27T08:52:44.169Z,38.80
2017-08-27T08:55:11.705Z,34.90
2017-08-27T08:57:39.227Z,32.20
2017-08-27T09:00:06.744Z,32.00
2017-08-27T09:02:34.290Z,33.40
2017-08-27T09:05:01.791Z,34.60
2017-08-27T09:07:29.329Z,37.60
2017-08-27T09:09:56.832Z,38.20
2017-08-27T09:12:24.336Z,37.80
2017-08-27T09:14:51.881Z,38.20
2017-08-27T09:17:19.385Z,36.30
2017-08-27T09:19:46.892Z,38.20
2017-08-27T09:22:14.420Z,38.40
2017-08-27T09:24:41.976Z,38.50
2017-08-27T09:27:09.508Z,38.60
2017-08-27T09:29:37.780Z,37.30
2017-08-27T09:32:05.371Z,37.30
2017-08-27T09:34:32.901Z,38.20
2017-08-27T09:37:00.486Z,39.50
2017-08-27T09:39:28.012Z,40.70
2017-08-27T09:41:55.507Z,40.50
2017-08-27T09:44:23.043Z,38.00
2017-08-27T09:46:50.565Z,36.00
2017-08-27T09:49:18.183Z,35.10
2017-08-27T09:51:45.711Z,33.10
2017-08-27T09:54:13.404Z,32.50
2017-08-27T09:56:40.945Z,31.90
2017-08-27T09:59:08.481Z,30.70
2017-08-27T10:01:36.026Z,32.50
2017-08-27T10:04:03.543Z,31.80
2017-08-27T10:06:31.090Z,31.10
2017-08-27T10:08:58.596Z,30.90
2017-08-27T10:11:26.214Z,29.10
2017-08-27T10:13:53.763Z,30.20
2017-08-27T10:16:21.292Z,29.30
2017-08-27T10:18:49.611Z,31.40
2017-08-27T10:21:17.158Z,31.30
2017-08-27T10:23:44.655Z,30.60
2017-08-27T10:26:12.159Z,27.90
2017-08-27T10:28:39.705Z,28.40
2017-08-27T10:31:07.227Z,26.50
2017-08-27T10:33:34.763Z,26.70
2017-08-27T10:36:02.318Z,27.90
2017-08-27T10:38:29.866Z,27.10
2017-08-27T10:40:57.436Z,27.00
2017-08-27T10:43:24.931Z,28.20
2017-08-27T10:45:52.474Z,26.50
2017-08-27T10:48:19.977Z,26.00
2017-08-27T10:50:47.499Z,25.30
2017-08-27T10:53:15.016Z,24.70
2017-08-27T10:55:42.539Z,25.30
2017-08-27T10:58:10.050Z,24.40
2017-08-27T11:00:37.563Z,24.00
2017-08-27T11:03:05.088Z,22.50
2017-08-27T11:05:32.597Z,22.40
2017-08-27T11:08:00.143Z,22.40
2017-08-27T11:10:27.644Z,20.50
2017-08-27T11:12:55.143Z,21.20
2017-08-27T11:15:22.687Z,21.30
2017-08-27T11:17:50.183Z,20.40
2017-08-27T11:20:17.770Z,19.00
2017-08-27T11:22:45.263Z,19.70
2017-08-27T11:25:12.823Z,19.40
2017-08-27T11:27:40.344Z,20.50
2017-08-27T11:30:07.854Z,21.20
2017-08-27T11:32:35.384Z,20.90
2017-08-27T11:35:02.885Z,20.20
2017-08-27T11:37:30.409Z,21.40
2017-08-27T11:39:57.949Z,22.10
2017-08-27T11:42:25.448Z,21.00
2017-08-27T11:44:52.968Z,22.20
2017-08-27T11:47:20.463Z,21.50
2017-08-27T11:49:48.010Z,20.40
2017-08-27T11:52:15.629Z,18.60
2017-08-27T11:54:43.142Z,18.30
2017-08-27T11:57:10.674Z,17.90
2017-08-27T11:59:38.190Z,17.00
2017-08-27T12:02:05.763Z,16.40
2017-08-27T12:04:33.265Z,16.00
2017-08-27T12:07:00.880Z,16.90
2017-08-27T12:09:28.425Z,16.80
2017-08-27T12:11:55.964Z,16.80
2017-08-27T12:14:24.247Z,17.00
2017-08-27T12:16:52.531Z,16.50
2017-08-27T12:19:20.111Z,16.50
2017-08-27T12:21:47.619Z,16.20
2017-08-27T12:24:15.130Z,16.10
2017-08-27T12:26:42.664Z,15.50
2017-08-27T12:29:10.167Z,15.80
2017-08-27T12:31:37.699Z,16.20
2017-08-27T12:34:05.251Z,17.50
2017-08-27T12:36:32.819Z,17.30
2017-08-27T12:39:00.334Z,16.60
2017-08-27T12:41:27.856Z,15.90
2017-08-27T12:43:55.375Z,16.20
2017-08-27T12:46:22.923Z,16.30
2017-08-27T12:48:50.468Z,14.90
2017-08-27T12:51:17.986Z,15.60
2017-08-27T12:53:45.500Z,15.70
2017-08-27T12:56:13.042Z,16.40
2017-08-27T12:58:40.752Z,15.50
2017-08-27T13:01:08.273Z,15.20
2017-08-27T13:03:35.867Z,15.40
2017-08-27T13:06:03.360Z,15.30
2017-08-27T13:08:30.883Z,15.50
2017-08-27T13:10:58.430Z,16.00
2017-08-27T13:13:25.943Z,16.40
2017-08-27T13:15:53.460Z,17.50
2017-08-27T13:18:21.010Z,16.60
2017-08-27T13:20:49.276Z,16.50
2017-08-27T13:23:16.794Z,16.50
2017-08-27T13:25:44.346Z,15.90
2017-08-27T13:28:11.871Z,15.30
2017-08-27T13:30:39.368Z,16.10
2017-08-27T13:33:06.895Z,17.80
2017-08-27T13:35:34.396Z,19.30
2017-08-27T13:38:01.896Z,21.50
2017-08-27T13:40:29.460Z,21.90
2017-08-27T13:42:56.979Z,20.20
2017-08-27T13:45:24.485Z,18.50
2017-08-27T13:47:52.035Z,17.20
2017-08-27T13:50:19.531Z,17.40
2017-08-27T13:52:47.027Z,16.50
2017-08-27T13:55:14.566Z,15.90
2017-08-27T13:57:42.065Z,19.00
2017-08-27T14:00:09.564Z,21.40
2017-08-27T14:02:37.098Z,23.60
2017-08-27T14:05:04.595Z,24.40
2017-08-27T14:07:32.204Z,25.90
2017-08-27T14:09:59.732Z,27.10
2017-08-27T14:12:28.001Z,26.70
2017-08-27T14:14:55.518Z,26.60
2017-08-27T14:17:23.058Z,23.10
2017-08-27T14:19:50.568Z,21.80
2017-08-27T14:22:18.073Z,19.60
2017-08-27T14:24:45.610Z,17.30
2017-08-27T14:27:13.126Z,18.60
2017-08-27T14:29:40.624Z,20.80
2017-08-27T14:32:08.161Z,23.00
2017-08-27T14:34:35.682Z,25.30
2017-08-27T14:37:03.218Z,27.00
2017-08-27T14:39:30.759Z,26.70
2017-08-27T14:41:58.274Z,23.60
2017-08-27T14:44:25.788Z,21.70
2017-08-27T14:46:53.317Z,20.60
2017-08-27T14:49:20.811Z,19.70
2017-08-27T14:51:48.306Z,18.60
2017-08-27T14:54:15.849Z,18.00
2017-08-27T14:56:43.352Z,18.50
2017-08-27T14:59:10.861Z,18.50
2017-08-27T15:01:38.389Z,19.30
2017-08-27T15:04:05.906Z,19.40
2017-08-27T15:06:33.399Z,19.30
2017-08-27T15:09:00.983Z,20.20
2017-08-27T15:11:28.483Z,22.60
2017-08-27T15:13:55.990Z,25.30
2017-08-27T15:16:23.516Z,26.60
2017-08-27T15:18:51.020Z,25.80
2017-08-27T15:21:18.547Z,24.50
2017-08-27T15:23:46.093Z,23.70
2017-08-27T15:26:13.606Z,23.10
2017-08-27T15:28:41.146Z,23.10
2017-08-27T15:31:08.667Z,24.10
2017-08-27T15:33:36.269Z,24.40
2017-08-27T15:36:03.782Z,25.20
2017-08-27T15:38:31.338Z,26.20
2017-08-27T15:40:58.831Z,27.10
2017-08-27T15:43:26.346Z,27.90
2017-08-27T15:45:53.894Z,28.80
2017-08-27T15:48:21.396Z,28.80
2017-08-27T15:50:48.904Z,29.20
2017-08-27T15:53:16.436Z,30.20
2017-08-27T15:55:43.932Z,30.10
2017-08-27T15:58:11.454Z,31.70
2017-08-27T16:00:38.971Z,31.10
2017-08-27T16:03:06.467Z,31.20
2017-08-27T16:05:33.964Z,32.20
2017-08-27T16:08:01.543Z,33.10
2017-08-27T16:10:29.058Z,34.10
2017-08-27T16:12:56.579Z,33.90
2017-08-27T16:15:24.104Z,34.50
2017-08-27T16:17:51.635Z,34.70
2017-08-27T16:20:19.155Z,35.60
2017-08-27T16:22:46.687Z,36.40
2017-08-27T16:25:14.198Z,37.40
2017-08-27T16:27:41.712Z,36.90
2017-08-27T16:30:09.240Z,37.50
2017-08-27T16:32:36.740Z,37.90
2017-08-27T16:35:04.265Z,38.30
2017-08-27T16:37:31.968Z,39.20
2017-08-27T16:39:59.460Z,38.60
2017-08-27T16:42:26.956Z,38.80
2017-08-27T16:44:54.507Z,39.80
2017-08-27T16:47:33.904Z,40.00
2017-08-27T16:50:01.454Z,39.80
2017-08-27T16:52:29.011Z,39.60
2017-08-27T16:54:56.513Z,39.70
2017-08-27T16:57:24.049Z,40.60
2017-08-27T16:59:51.565Z,40.90
2017-08-27T17:02:19.059Z,41.20
2017-08-27T17:04:46.604Z,42.40
2017-08-27T17:07:14.114Z,43.00
2017-08-27T17:09:41.621Z,42.40
2017-08-27T17:12:09.162Z,42.60
2017-08-27T17:14:36.655Z,44.00
2017-08-27T17:17:04.152Z,44.10
2017-08-27T17:19:31.712Z,44.10
2017-08-27T17:21:59.204Z,44.60
2017-08-27T17:24:26.714Z,44.20
2017-08-27T17:26:54.255Z,44.40
2017-08-27T17:29:21.756Z,45.00
2017-08-27T17:31:49.266Z,45.40
2017-08-27T17:34:16.804Z,45.20
2017-08-27T17:36:44.300Z,45.40
2017-08-27T17:39:11.815Z,45.30
2017-08-27T17:41:39.336Z,45.80
2017-08-27T17:44:06.847Z,46.00
2017-08-27T17:46:34.342Z,46.30
2017-08-27T17:49:01.888Z,46.80
2017-08-27T17:51:29.392Z,47.10
2017-08-27T17:53:57.665Z,47.50
2017-08-27T17:56:25.202Z,47.40
2017-08-27T17:58:53.482Z,48.40
2017-08-27T18:01:20.995Z,48.30
2017-08-27T18:03:48.515Z,49.50
2017-08-27T18:06:16.032Z,49.60
2017-08-27T18:08:43.656Z,49.90
2017-08-27T18:11:11.184Z,50.20
2017-08-27T18:13:38.702Z,50.80
2017-08-27T18:16:06.223Z,51.20
2017-08-27T18:18:33.769Z,52.40
2017-08-27T18:21:01.268Z,52.80
2017-08-27T18:23:28.759Z,54.40
2017-08-27T18:25:56.287Z,54.90
2017-08-27T18:28:23.787Z,55.70
2017-08-27T18:30:51.299Z,56.80
2017-08-27T18:33:18.855Z,58.20
2017-08-27T18:35:46.398Z,59.20
2017-08-27T18:38:13.914Z,59.00
2017-08-27T18:40:42.222Z,58.20
2017-08-27T18:43:09.792Z,58.00
2017-08-27T18:45:37.315Z,57.70
2017-08-27T18:48:05.627Z,57.80
2017-08-27T18:50:33.120Z,57.80
2017-08-27T18:53:00.634Z,59.10
2017-08-27T18:55:28.179Z,60.40
2017-08-27T18:57:55.671Z,61.30
2017-08-27T19:00:23.184Z,62.60
2017-08-27T19:02:56.430Z,63.60
2017-08-27T19:05:23.931Z,63.40
2017-08-27T19:07:51.442Z,63.50
2017-08-27T19:10:18.982Z,64.20
2017-08-27T19:12:46.505Z,63.40
2017-08-27T19:15:14.005Z,64.20
2017-08-27T19:17:41.536Z,66.10
2017-08-27T19:20:09.032Z,66.40
2017-08-27T19:22:36.588Z,67.50
2017-08-27T19:25:04.134Z,68.00
2017-08-27T19:27:31.709Z,69.10
2017-08-27T19:29:59.230Z,70.10
2017-08-27T19:32:26.825Z,69.90
2017-08-27T19:34:54.338Z,70.30
2017-08-27T19:37:21.844Z,71.90
2017-08-27T19:39:49.371Z,72.40
2017-08-27T19:42:16.882Z,73.00
2017-08-27T19:44:44.415Z,73.20
2017-08-27T19:47:11.978Z,74.20
2017-08-27T19:49:39.475Z,74.70
2017-08-27T19:52:07.096Z,74.40
2017-08-27T19:54:34.635Z,74.80
2017-08-27T19:57:02.212Z,74.90
2017-08-27T19:59:29.716Z,74.50
2017-08-27T20:01:57.330Z,73.70
2017-08-27T20:04:24.842Z,75.00
2017-08-27T20:06:52.358Z,75.90
2017-08-27T20:09:19.903Z,75.30
2017-08-27T20:11:47.404Z,75.00
2017-08-27T20:14:14.921Z,75.50
2017-08-27T20:16:42.467Z,75.40
2017-08-27T20:19:09.990Z,74.70
2017-08-27T20:21:37.503Z,76.00
2017-08-27T20:24:05.033Z,76.40
2017-08-27T20:26:32.558Z,76.00
2017-08-27T20:29:00.060Z,76.50
2017-08-27T20:31:27.610Z,77.50
2017-08-27T20:33:55.108Z,76.80
2017-08-27T20:36:22.622Z,77.20
2017-08-27T20:38:50.145Z,77.20
2017-08-27T20:41:17.785Z,76.60
2017-08-27T20:43:45.280Z,77.10
2017-08-27T20:46:12.826Z,75.90
2017-08-27T20:48:40.351Z,74.60
2017-08-27T20:51:07.871Z,75.20
2017-08-27T20:53:35.396Z,75.20
2017-08-27T20:56:02.914Z,75.80
2017-08-27T20:58:30.426Z,74.60
2017-08-27T21:00:57.970Z,75.00
2017-08-27T21:03:25.486Z,75.00
2017-08-27T21:05:52.985Z,75.70
2017-08-27T21:08:20.535Z,76.00
2017-08-27T21:10:48.813Z,76.20
2017-08-27T21:13:16.308Z,76.10
2017-08-27T21:15:43.851Z,75.90
2017-08-27T21:18:11.366Z,76.60
2017-08-27T21:20:38.865Z,76.40
2017-08-27T21:23:06.397Z,78.00
2017-08-27T21:25:33.900Z,78.50
2017-08-27T21:28:01.399Z,78.70
2017-08-27T21:30:28.919Z,79.10
2017-08-27T21:32:56.459Z,80.80
2017-08-27T21:35:23.970Z,81.20
2017-08-27T21:37:51.522Z,82.00
2017-08-27T21:40:19.034Z,83.00
2017-08-27T21:42:46.541Z,84.60
2017-08-27T21:45:14.085Z,85.10
2017-08-27T21:47:41.604Z,85.80
2017-08-27T21:50:09.104Z,86.30
2017-08-27T21:52:36.635Z,87.00
2017-08-27T21:55:04.128Z,87.70
2017-08-27T21:57:31.642Z,88.10
2017-08-27T21:59:59.200Z,88.60
2017-08-27T22:02:26.713Z,88.70
2017-08-27T22:04:54.231Z,89.80
2017-08-27T22:07:21.778Z,89.50
2017-08-27T22:09:49.276Z,90.30
2017-08-27T22:12:16.789Z,90.40
2017-08-27T22:14:44.329Z,90.40
2017-08-27T22:17:11.828Z,90.30
2017-08-27T22:19:39.342Z,90.30
2017-08-27T22:22:06.948Z,90.60
2017-08-27T22:24:34.463Z,90.80
2017-08-27T22:27:01.995Z,90.90
2017-08-27T22:29:29.538Z,90.70
2017-08-27T22:31:57.035Z,91.60
2017-08-27T22:34:25.318Z,91.30
2017-08-27T22:36:52.862Z,91.30
2017-08-27T22:39:21.120Z,91.80
2017-08-27T22:41:48.620Z,91.80
2017-08-27T22:44:16.153Z,92.00
2017-08-27T22:46:43.666Z,91.80
2017-08-27T22:49:11.167Z,91.80
2017-08-27T22:51:38.719Z,92.00
2017-08-27T22:54:06.323Z,92.60
2017-08-27T22:56:33.825Z,92.90
2017-08-27T22:59:01.371Z,92.90
2017-08-27T23:01:28.876Z,92.90
2017-08-27T23:03:56.381Z,93.20
2017-08-27T23:06:23.909Z,92.90
2017-08-27T23:08:51.421Z,93.10
2017-08-27T23:11:18.919Z,93.50
2017-08-27T23:13:46.462Z,93.50
2017-08-27T23:16:14.728Z,93.60
2017-08-27T23:18:42.992Z,93.90
2017-08-27T23:21:10.530Z,93.80
2017-08-27T23:23:38.055Z,93.80
2017-08-27T23:26:05.557Z,94.20
2017-08-27T23:28:33.106Z,94.40
2017-08-27T23:31:00.617Z,94.50
2017-08-27T23:33:28.898Z,94.60
2017-08-27T23:35:56.467Z,94.60
2017-08-27T23:38:23.977Z,94.60
2017-08-27T23:40:51.491Z,94.60
2017-08-27T23:43:19.042Z,94.50
2017-08-27T23:45:46.558Z,94.60
2017-08-27T23:48:14.060Z,94.60
2017-08-27T23:50:41.592Z,94.60
2017-08-27T23:53:09.098Z,94.50
2017-08-27T23:55:36.622Z,94.60
2017-08-27T23:58:04.158Z,94.60
